Time;durP1;ratioP1;P1;durP2;ratioP2;P2;SDS_P1;SDS_P2;PMS_P1;PMS_P2;Temp;Humidity;BMP_temperature;BMP_pressure;BME280_temperature;BME280_humidity;BME280_pressure;Samples;Min_cycle;Max_cycle;Signal;HPM_P1;HPM_P2
2023/05/18 00:00:00;;;;;;;9.45;2.08;;;;;;;8.36;100.00;102807.16;5073020;28;20029;-44
2023/05/18 00:02:26;;;;;;;6.72;1.70;;;;;;;8.36;100.00;102807.16;5047849;28;20080;-43
2023/05/18 00:04:52;;;;;;;7.38;2.75;;;;;;;8.34;100.00;102807.28;5063554;28;20094;-44
2023/05/18 00:07:17;;;;;;;11.25;2.08;;;;;;;8.33;100.00;102812.78;5054894;28;20040;-48
2023/05/18 00:09:42;;;;;;;18.85;3.00;;;;;;;8.32;100.00;102805.69;5050379;28;20063;-43
2023/05/18 00:12:09;;;;;;;6.50;1.38;;;;;;;8.39;100.00;102806.94;5053729;28;20116;-42
2023/05/18 00:14:34;;;;;;;10.50;1.55;;;;;;;8.35;100.00;102805.47;5069988;28;20032;-43
2023/05/18 00:17:00;;;;;;;6.22;1.77;;;;;;;8.32;100.00;102809.25;5072230;28;20636;-44
2023/05/18 00:19:27;;;;;;;6.13;2.00;;;;;;;8.29;100.00;102813.97;5061363;28;20048;-43
2023/05/18 00:21:54;;;;;;;7.90;2.35;;;;;;;8.28;100.00;102810.44;5055568;28;20470;-47
2023/05/18 00:24:20;;;;;;;7.57;1.47;;;;;;;8.30;100.00;102807.66;5072778;28;20024;-44
2023/05/18 00:26:46;;;;;;;5.68;1.67;;;;;;;8.34;100.00;102803.75;5072087;28;20020;-44
2023/05/18 00:29:12;;;;;;;13.35;1.60;;;;;;;8.28;100.00;102809.59;5072396;28;20025;-45
2023/05/18 00:31:38;;;;;;;9.88;1.60;;;;;;;8.25;100.00;102815.19;5068359;28;20502;-43
2023/05/18 00:34:04;;;;;;;8.43;1.80;;;;;;;8.27;100.00;102813.25;5051992;28;20043;-44
2023/05/18 00:36:30;;;;;;;7.22;1.65;;;;;;;8.23;100.00;102804.56;5070697;28;20033;-43
2023/05/18 00:38:59;;;;;;;4.25;1.45;;;;;;;8.19;100.00;102810.28;5072105;28;20035;-43
2023/05/18 00:41:26;;;;;;;10.55;2.17;;;;;;;8.16;100.00;102816.75;5071530;28;20036;-43
2023/05/18 00:43:52;;;;;;;14.25;2.20;;;;;;;8.21;100.00;102813.72;5055783;28;20107;-44
2023/05/18 00:46:17;;;;;;;5.90;1.95;;;;;;;8.18;100.00;102812.13;5071245;28;20036;-44
2023/05/18 00:48:43;;;;;;;10.20;2.42;;;;;;;8.14;100.00;102805.28;5066342;28;20036;-48
2023/05/18 00:51:09;;;;;;;7.70;1.98;;;;;;;8.10;100.00;102812.69;5067069;28;20043;-49
2023/05/18 00:53:35;;;;;;;7.57;1.63;;;;;;;8.09;100.00;102805.66;5069793;28;20033;-47
2023/05/18 00:56:02;;;;;;;9.82;1.98;;;;;;;8.09;100.00;102811.00;5071669;28;20044;-46
2023/05/18 00:58:27;;;;;;;6.03;1.70;;;;;;;8.10;100.00;102806.50;5072086;28;20033;-43
2023/05/18 01:00:53;;;;;;;8.85;2.10;;;;;;;8.09;100.00;102808.31;5059339;28;20025;-44
2023/05/18 01:03:20;;;;;;;7.25;1.73;;;;;;;8.05;100.00;102809.50;5065981;28;20055;-43
2023/05/18 01:05:49;;;;;;;8.73;2.05;;;;;;;8.06;100.00;102821.13;5039843;28;20033;-44
2023/05/18 01:08:15;;;;;;;7.35;1.58;;;;;;;8.10;100.00;102817.22;5052601;28;20029;-44
2023/05/18 01:10:42;;;;;;;8.68;1.63;;;;;;;8.09;100.00;102824.41;5052071;28;20044;-44
2023/05/18 01:13:26;;;;;;;18.08;2.60;;;;;;;8.08;100.00;102824.53;5050118;28;20063;-41
2023/05/18 01:15:53;;;;;;;9.85;2.20;;;;;;;8.05;100.00;102825.59;5054985;28;20036;-46
2023/05/18 01:18:30;;;;;;;9.17;2.50;;;;;;;8.03;100.00;102826.69;5064190;28;20048;-43
2023/05/18 01:20:58;;;;;;;7.82;2.15;;;;;;;8.05;100.00;102824.75;5050069;28;20041;-46
2023/05/18 01:23:53;;;;;;;10.85;2.10;;;;;;;8.02;100.00;102815.13;5062724;28;20484;-43
2023/05/18 01:26:28;;;;;;;9.77;2.03;;;;;;;7.99;100.00;102820.72;5033498;28;20025;-44
2023/05/18 01:28:55;;;;;;;10.23;1.88;;;;;;;7.95;100.00;102819.22;5051033;28;20029;-44
2023/05/18 01:31:21;;;;;;;5.93;2.17;;;;;;;7.96;100.00;102815.59;5056511;28;20475;-44
2023/05/18 01:33:47;;;;;;;7.95;1.90;;;;;;;7.95;100.00;102823.75;5051757;28;20040;-44
2023/05/18 01:36:13;;;;;;;7.25;1.98;;;;;;;7.96;100.00;102820.97;5070322;28;20029;-44
2023/05/18 01:38:39;;;;;;;9.10;1.98;;;;;;;7.95;100.00;102818.38;5070227;28;20040;-44
2023/05/18 01:41:20;;;;;;;10.15;2.15;;;;;;;8.00;100.00;102826.94;5060766;28;20033;-43
2023/05/18 01:43:57;;;;;;;6.25;1.80;;;;;;;7.96;100.00;102820.97;5052723;28;20031;-46
2023/05/18 01:46:37;;;;;;;15.00;2.42;;;;;;;7.93;100.00;102825.72;5051011;28;20032;-46
2023/05/18 01:49:16;;;;;;;7.00;2.10;;;;;;;7.90;100.00;102826.78;5053210;28;20056;-44
2023/05/18 01:51:44;;;;;;;10.15;2.45;;;;;;;7.88;100.00;102828.72;5067034;28;20036;-44
2023/05/18 01:54:10;;;;;;;9.65;2.38;;;;;;;7.88;100.00;102823.38;5069515;28;20036;-44
2023/05/18 01:56:36;;;;;;;14.38;3.13;;;;;;;7.89;100.00;102830.44;5068101;28;20498;-43
2023/05/18 01:59:02;;;;;;;9.23;2.58;;;;;;;7.87;100.00;102827.00;5070197;28;20044;-42
2023/05/18 02:01:29;;;;;;;7.32;2.05;;;;;;;7.85;100.00;102827.13;5066381;28;20074;-44
2023/05/18 02:03:54;;;;;;;9.82;2.88;;;;;;;7.82;100.00;102829.16;5050605;28;20056;-47
2023/05/18 02:06:20;;;;;;;6.93;2.40;;;;;;;7.80;100.00;102833.81;5050623;28;20052;-42
2023/05/18 02:08:45;;;;;;;8.98;2.17;;;;;;;7.76;100.00;102824.28;5061268;28;20371;-45
2023/05/18 02:11:10;;;;;;;10.93;2.50;;;;;;;7.72;100.00;102828.19;5068617;28;20021;-44
2023/05/18 02:13:36;;;;;;;11.98;2.13;;;;;;;7.67;100.00;102824.00;5068577;28;20021;-44
2023/05/18 02:16:05;;;;;;;10.93;2.45;;;;;;;7.64;100.00;102824.22;5050934;28;20087;-44
2023/05/18 02:18:32;;;;;;;5.95;2.38;;;;;;;7.61;100.00;102827.16;5050557;28;20056;-46
2023/05/18 02:20:59;;;;;;;7.97;2.10;;;;;;;7.64;100.00;102834.94;5051352;28;20460;-45
2023/05/18 02:23:24;;;;;;;12.45;2.80;;;;;;;7.65;100.00;102831.28;5069708;28;20041;-46
2023/05/18 02:25:50;;;;;;;5.57;2.30;;;;;;;7.63;100.00;102827.00;5067067;28;20052;-44
2023/05/18 02:28:16;;;;;;;12.00;2.63;;;;;;;7.65;100.00;102828.59;5064852;28;20709;-44
2023/05/18 02:30:41;;;;;;;11.05;2.75;;;;;;;7.63;100.00;102825.19;5070724;28;20017;-44
2023/05/18 02:33:07;;;;;;;7.22;2.40;;;;;;;7.58;100.00;102824.69;5056296;28;20044;-41
2023/05/18 02:35:34;;;;;;;11.20;2.50;;;;;;;7.57;100.00;102825.66;5053361;28;20404;-45
2023/05/18 02:37:59;;;;;;;11.57;2.17;;;;;;;7.54;100.00;102822.34;5054897;28;20044;-44
2023/05/18 02:40:25;;;;;;;13.65;2.38;;;;;;;7.47;100.00;102822.78;5053373;28;20416;-43
2023/05/18 02:42:50;;;;;;;10.32;2.22;;;;;;;7.45;100.00;102823.88;5063671;28;20028;-44
2023/05/18 02:45:16;;;;;;;6.88;2.38;;;;;;;7.42;100.00;102821.41;5070301;28;20045;-41
2023/05/18 02:47:42;;;;;;;12.07;2.47;;;;;;;7.41;100.00;102820.56;5074480;28;20033;-46
2023/05/18 02:50:09;;;;;;;9.07;2.80;;;;;;;7.40;100.00;102818.03;5069371;28;20044;-47
2023/05/18 02:52:34;;;;;;;12.30;3.10;;;;;;;7.38;100.00;102823.47;5061817;28;20023;-47
2023/05/18 02:54:59;;;;;;;11.30;2.70;;;;;;;7.42;100.00;102813.38;5059786;28;20025;-43
2023/05/18 02:57:26;;;;;;;10.50;2.90;;;;;;;7.40;100.00;102818.03;5059015;28;20025;-45
2023/05/18 02:59:51;;;;;;;12.93;2.85;;;;;;;7.40;100.00;102815.34;5052795;28;20474;-43
2023/05/18 03:02:17;;;;;;;8.60;2.53;;;;;;;7.37;100.00;102818.22;5054230;28;20049;-48
2023/05/18 03:04:42;;;;;;;12.10;2.42;;;;;;;7.39;100.00;102817.13;5065384;28;20032;-42
2023/05/18 03:07:09;;;;;;;8.70;2.42;;;;;;;7.37;100.00;102826.25;5065047;28;20443;-45
2023/05/18 03:09:35;;;;;;;11.65;2.60;;;;;;;7.36;100.00;102816.53;5052407;28;20056;-46
2023/05/18 03:12:01;;;;;;;5.65;2.08;;;;;;;7.34;100.00;102815.78;5053925;28;20052;-42
2023/05/18 03:14:27;;;;;;;10.00;2.30;;;;;;;7.41;100.00;102815.22;5054787;28;20521;-47
2023/05/18 03:16:53;;;;;;;9.73;2.60;;;;;;;7.39;100.00;102810.94;5052449;28;20029;-44
2023/05/18 03:19:21;;;;;;;10.52;2.70;;;;;;;7.38;100.00;102814.59;5052825;28;20033;-42
2023/05/18 03:21:48;;;;;;;11.93;2.15;;;;;;;7.31;100.00;102821.34;5068785;28;20118;-43
2023/05/18 03:24:15;;;;;;;9.55;2.65;;;;;;;7.31;100.00;102824.88;5059981;28;20024;-43
2023/05/18 03:26:43;;;;;;;7.03;2.27;;;;;;;7.28;100.00;102821.59;5072511;28;20028;-43
2023/05/18 03:29:08;;;;;;;7.07;2.45;;;;;;;7.31;100.00;102818.69;5071846;28;20119;-44
2023/05/18 03:31:35;;;;;;;4.55;2.05;;;;;;;7.35;100.00;102817.50;5055407;28;20171;-46
2023/05/18 03:34:00;;;;;;;10.55;2.20;;;;;;;7.29;100.00;102820.59;5054261;28;20040;-48
2023/05/18 03:36:26;;;;;;;7.25;2.38;;;;;;;7.26;100.00;102827.88;5054857;28;20028;-44
2023/05/18 03:38:52;;;;;;;9.63;2.25;;;;;;;7.28;100.00;102821.59;5055196;28;20032;-45
2023/05/18 03:41:17;;;;;;;14.13;2.50;;;;;;;7.29;100.00;102820.59;5057589;28;20072;-43
2023/05/18 03:43:43;;;;;;;9.23;2.70;;;;;;;7.30;100.00;102817.81;5054013;28;20090;-46
2023/05/18 03:46:08;;;;;;;9.35;2.53;;;;;;;7.28;100.00;102826.94;5072354;28;20028;-43
2023/05/18 03:48:34;;;;;;;8.93;2.38;;;;;;;7.29;100.00;102825.97;5039910;28;20033;-45
2023/05/18 03:50:59;;;;;;;7.03;2.67;;;;;;;7.25;100.00;102819.97;5070159;28;20115;-45
2023/05/18 03:53:26;;;;;;;7.03;2.05;;;;;;;7.28;100.00;102813.53;5071450;28;20043;-43
2023/05/18 03:55:51;;;;;;;14.27;2.60;;;;;;;7.25;100.00;102815.47;5070164;28;20081;-46
2023/05/18 03:58:20;;;;;;;7.68;2.13;;;;;;;7.25;100.00;102820.84;5071233;28;20366;-46
2023/05/18 04:00:48;;;;;;;11.50;2.55;;;;;;;7.22;100.00;102821.06;5053635;28;20141;-47
2023/05/18 04:03:13;;;;;;;8.73;2.30;;;;;;;7.21;100.00;102823.84;5051409;28;20045;-47
2023/05/18 04:05:44;;;;;;;11.75;2.60;;;;;;;7.26;100.00;102827.88;5051433;28;20067;-44
2023/05/18 04:08:13;;;;;;;8.35;2.35;;;;;;;7.22;100.00;102821.06;5051868;28;20040;-46
2023/05/18 04:10:40;;;;;;;10.00;2.40;;;;;;;7.26;100.00;102824.34;5050484;28;20040;-43
2023/05/18 04:13:05;;;;;;;10.10;2.40;;;;;;;7.25;100.00;102834.22;5052240;28;20037;-47
2023/05/18 04:15:32;;;;;;;13.40;2.40;;;;;;;7.23;100.00;102828.13;5065431;28;20032;-45
2023/05/18 04:17:58;;;;;;;7.35;2.33;;;;;;;7.23;100.00;102819.22;5049358;28;20026;-43
2023/05/18 04:20:27;;;;;;;9.32;2.53;;;;;;;7.21;100.00;102826.50;5054496;28;20119;-43
2023/05/18 04:22:52;;;;;;;6.80;2.30;;;;;;;7.23;100.00;102838.81;5061490;28;20462;-44
2023/05/18 04:25:19;;;;;;;10.73;2.47;;;;;;;7.26;100.00;102830.56;5050637;28;20056;-42
2023/05/18 04:27:44;;;;;;;7.47;2.10;;;;;;;7.34;100.00;102837.19;5049804;28;20055;-45
2023/05/18 04:30:11;;;;;;;9.13;2.60;;;;;;;7.38;100.00;102834.19;5051766;28;20041;-43
2023/05/18 04:32:37;;;;;;;5.65;1.98;;;;;;;7.44;100.00;102830.19;5056345;28;20545;-46
2023/05/18 04:35:06;;;;;;;10.40;2.17;;;;;;;7.42;100.00;102834.81;5069427;28;20463;-48
2023/05/18 04:37:32;;;;;;;11.02;2.97;;;;;;;7.46;100.00;102839.00;5064306;28;20025;-46
2023/05/18 04:40:01;;;;;;;14.48;3.22;;;;;;;7.51;100.00;102842.19;5052883;28;20554;-44
2023/05/18 04:42:29;;;;;;;6.68;2.22;;;;;;;7.52;100.00;102841.22;5069218;28;20166;-44
2023/05/18 04:44:55;;;;;;;14.48;3.03;;;;;;;7.56;100.00;102845.38;5069504;28;20032;-45
2023/05/18 04:47:20;;;;;;;12.38;2.67;;;;;;;7.59;100.00;102845.16;5062647;28;20020;-44
2023/05/18 04:49:47;;;;;;;6.68;2.00;;;;;;;7.69;100.00;102850.69;5063168;28;20040;-43
2023/05/18 04:52:13;;;;;;;10.98;2.22;;;;;;;7.80;100.00;102845.38;5056639;28;20470;-43
2023/05/18 04:54:39;;;;;;;5.00;2.00;;;;;;;7.83;100.00;102855.03;5067335;28;20044;-42
2023/05/18 04:57:05;;;;;;;6.00;2.28;;;;;;;7.87;100.00;102851.13;5062263;28;20024;-43
2023/05/18 04:59:35;;;;;;;7.70;2.20;;;;;;;7.95;100.00;102847.88;5069488;28;20025;-44
2023/05/18 05:02:01;;;;;;;6.88;2.03;;;;;;;8.04;100.00;102855.25;5069145;28;20478;-46
2023/05/18 05:04:27;;;;;;;11.13;2.28;;;;;;;8.09;100.00;102851.22;5066153;28;20432;-47
2023/05/18 05:06:52;;;;;;;8.75;2.00;;;;;;;8.14;100.00;102856.25;5050551;28;20068;-44
2023/05/18 05:09:17;;;;;;;6.53;2.15;;;;;;;8.23;100.00;102855.53;5049089;28;20571;-45
2023/05/18 05:11:43;;;;;;;8.38;2.00;;;;;;;8.25;100.00;102853.59;5050710;28;20067;-44
2023/05/18 05:14:08;;;;;;;14.57;2.20;;;;;;;8.33;100.00;102855.69;5050900;28;20673;-46
2023/05/18 05:16:34;;;;;;;12.15;2.28;;;;;;;8.31;100.00;102857.63;5050926;28;20033;-48
2023/05/18 05:19:00;;;;;;;7.35;2.30;;;;;;;8.44;100.00;102863.81;5050523;28;20028;-44
2023/05/18 05:21:25;;;;;;;9.23;2.40;;;;;;;8.53;100.00;102856.84;5050761;28;20612;-43
2023/05/18 05:23:51;;;;;;;8.77;2.05;;;;;;;8.54;100.00;102851.38;5044638;28;20039;-45
2023/05/18 05:26:17;;;;;;;8.88;2.60;;;;;;;8.43;100.00;102851.38;5047403;28;20041;-43
2023/05/18 05:28:42;;;;;;;12.60;2.10;;;;;;;8.44;100.00;102847.69;5048215;28;20056;-42
2023/05/18 05:31:08;;;;;;;4.35;1.83;;;;;;;8.45;100.00;102854.78;5050346;28;20061;-45
2023/05/18 05:33:33;;;;;;;8.32;2.15;;;;;;;8.39;100.00;102855.25;5049934;28;20553;-46
2023/05/18 05:35:59;;;;;;;12.88;2.63;;;;;;;8.47;100.00;102850.13;5065346;28;20104;-42
2023/05/18 05:38:25;;;;;;;10.23;2.40;;;;;;;8.53;100.00;102848.81;5065344;28;20112;-43
2023/05/18 05:40:50;;;;;;;12.45;2.08;;;;;;;8.57;100.00;102858.34;5049643;28;20523;-43
2023/05/18 05:43:15;;;;;;;5.28;2.10;;;;;;;8.66;100.00;102856.75;5062696;28;20482;-45
2023/05/18 05:45:42;;;;;;;8.85;1.92;;;;;;;8.78;100.00;102855.81;5051951;28;20074;-46
2023/05/18 05:48:08;;;;;;;14.18;2.20;;;;;;;8.84;100.00;102860.69;5067057;28;20024;-44
2023/05/18 05:50:33;;;;;;;7.45;1.92;;;;;;;8.86;100.00;102858.75;5070259;28;20032;-42
2023/05/18 05:52:59;;;;;;;6.55;2.10;;;;;;;8.93;100.00;102868.03;5061418;28;20024;-43
2023/05/18 05:55:24;;;;;;;5.53;1.70;;;;;;;9.12;100.00;102869.25;5063802;28;20082;-46
2023/05/18 05:57:50;;;;;;;11.27;2.20;;;;;;;9.24;100.00;102870.94;5065901;28;20115;-42
2023/05/18 06:00:15;;;;;;;10.18;2.17;;;;;;;9.41;100.00;102870.44;5069193;28;20490;-47
2023/05/18 06:02:41;;;;;;;8.90;1.80;;;;;;;9.53;100.00;102873.09;5064538;28;20471;-47
2023/05/18 06:05:07;;;;;;;9.80;2.15;;;;;;;9.59;100.00;102880.69;5052669;28;20024;-46
2023/05/18 06:07:33;;;;;;;7.07;2.10;;;;;;;9.65;100.00;102874.78;5053494;28;20518;-42
2023/05/18 06:09:58;;;;;;;7.07;1.67;;;;;;;9.81;100.00;102872.53;5053188;28;20057;-45
2023/05/18 06:12:24;;;;;;;9.10;1.92;;;;;;;10.15;100.00;102880.47;5072737;28;20091;-44
2023/05/18 06:14:53;;;;;;;6.30;1.98;;;;;;;10.73;100.00;102875.53;5071522;28;21065;-45
2023/05/18 06:17:18;;;;;;;9.25;1.92;;;;;;;11.11;100.00;102874.03;5055908;28;20072;-46
2023/05/18 06:19:44;;;;;;;8.43;1.45;;;;;;;11.57;100.00;102874.44;5054641;28;20143;-44
2023/05/18 06:22:09;;;;;;;6.53;1.70;;;;;;;12.08;100.00;102881.47;5071506;28;20415;-42
2023/05/18 06:24:35;;;;;;;9.55;1.80;;;;;;;12.46;97.35;102880.59;5072847;28;20395;-44
2023/05/18 06:27:00;;;;;;;6.47;1.75;;;;;;;12.85;97.09;102891.34;5059257;28;20074;-47
2023/05/18 06:29:25;;;;;;;9.75;2.20;;;;;;;12.99;93.61;102891.84;5067623;28;20387;-45
2023/05/18 06:31:51;;;;;;;8.05;2.03;;;;;;;13.05;92.14;102893.97;5046438;28;20037;-43
2023/05/18 06:34:16;;;;;;;7.97;2.63;;;;;;;13.27;90.36;102899.03;5067333;28;20032;-45
2023/05/18 06:36:42;;;;;;;8.43;1.90;;;;;;;13.18;89.58;102895.31;5059742;28;20037;-44
2023/05/18 06:39:07;;;;;;;13.23;2.10;;;;;;;12.93;88.95;102902.25;5060544;28;20127;-47
2023/05/18 06:41:33;;;;;;;9.55;1.85;;;;;;;12.82;89.85;102899.75;5060565;28;20044;-43
2023/05/18 06:44:00;;;;;;;9.48;1.80;;;;;;;12.80;90.17;102896.31;5066277;28;20391;-43
2023/05/18 06:46:25;;;;;;;8.37;1.80;;;;;;;12.89;92.49;102900.00;5061976;28;20509;-44
2023/05/18 06:48:51;;;;;;;7.25;1.55;;;;;;;12.81;91.63;102900.72;5066491;28;20040;-47
2023/05/18 06:51:17;;;;;;;13.07;2.10;;;;;;;12.89;91.60;102889.19;5068000;28;20115;-44
2023/05/18 06:53:43;;;;;;;11.88;2.60;;;;;;;13.08;90.52;102896.34;5068518;28;20158;-47
2023/05/18 06:56:10;;;;;;;7.78;1.88;;;;;;;13.62;89.86;102892.00;5068643;28;20036;-46
2023/05/18 06:58:36;;;;;;;10.25;2.20;;;;;;;13.92;87.07;102898.06;5067639;28;20039;-47
2023/05/18 07:01:01;;;;;;;9.40;1.98;;;;;;;14.75;84.76;102890.50;5067526;28;20036;-45
2023/05/18 07:03:27;;;;;;;9.82;1.98;;;;;;;15.08;79.75;102893.38;5068758;28;20478;-43
2023/05/18 07:05:52;;;;;;;7.53;1.83;;;;;;;14.91;78.73;102895.16;5067365;28;21334;-45
2023/05/18 07:08:18;;;;;;;11.50;2.38;;;;;;;14.23;80.11;102890.41;5066123;28;20048;-43
2023/05/18 07:10:43;;;;;;;8.50;1.95;;;;;;;14.00;82.18;102892.72;5069387;28;20102;-42
2023/05/18 07:13:08;;;;;;;8.35;2.03;;;;;;;13.64;84.24;102900.81;5068877;28;20052;-42
2023/05/18 07:15:34;;;;;;;10.68;2.17;;;;;;;13.17;86.45;102903.59;5063868;28;20063;-48
2023/05/18 07:17:59;;;;;;;8.07;2.00;;;;;;;13.31;88.42;102899.56;5062680;28;20051;-47
2023/05/18 07:20:25;;;;;;;11.05;2.20;;;;;;;14.00;86.27;102898.97;5066508;28;20040;-47
2023/05/18 07:22:51;;;;;;;9.45;1.77;;;;;;;15.09;82.14;102892.41;5067020;28;20147;-49
2023/05/18 07:25:16;;;;;;;8.48;2.00;;;;;;;15.95;75.48;102904.91;5068577;28;20020;-46
2023/05/18 07:27:41;;;;;;;11.73;2.10;;;;;;;16.60;72.11;102901.38;5069620;28;20441;-50
2023/05/18 07:30:08;;;;;;;7.95;2.25;;;;;;;17.15;70.91;102907.91;5068680;28;20040;-49
2023/05/18 07:32:33;;;;;;;7.43;2.05;;;;;;;17.91;64.85;102915.41;5067285;28;20553;-48
2023/05/18 07:34:59;;;;;;;7.85;2.20;;;;;;;17.97;63.55;102911.09;5068620;28;20036;-47
2023/05/18 07:37:24;;;;;;;7.55;2.33;;;;;;;17.73;61.95;102907.47;5069145;28;20041;-45
2023/05/18 07:39:51;;;;;;;8.02;1.90;;;;;;;17.23;64.53;102916.88;5069096;28;20081;-47
2023/05/18 07:42:16;;;;;;;5.70;1.73;;;;;;;16.89;64.29;102915.28;5069926;28;20028;-43
2023/05/18 07:44:41;;;;;;;7.35;2.10;;;;;;;16.62;65.41;102911.06;5067702;28;20028;-45
2023/05/18 07:47:07;;;;;;;4.90;1.80;;;;;;;16.28;67.75;102911.22;5069002;28;20112;-45
2023/05/18 07:49:32;;;;;;;12.30;1.77;;;;;;;16.64;69.39;102919.91;5068785;28;20032;-45
2023/05/18 07:51:59;;;;;;;9.02;2.08;;;;;;;16.61;68.27;102913.94;5069306;28;20635;-47
2023/05/18 07:54:25;;;;;;;9.80;2.40;;;;;;;16.58;67.96;102917.00;5068151;28;20048;-44
2023/05/18 07:56:51;;;;;;;9.50;2.30;;;;;;;17.00;67.07;102915.94;5067890;28;20024;-45
2023/05/18 07:59:16;;;;;;;7.10;1.92;;;;;;;17.52;66.35;102908.09;5066072;28;20073;-48
2023/05/18 08:01:43;;;;;;;6.72;2.10;;;;;;;18.23;61.84;102912.63;5067028;28;20787;-47
2023/05/18 08:04:09;;;;;;;8.93;2.13;;;;;;;18.75;57.94;102917.31;5065788;28;20120;-45
2023/05/18 08:06:34;;;;;;;8.63;1.98;;;;;;;18.88;57.31;102916.63;5066432;28;20107;-47
2023/05/18 08:08:59;;;;;;;6.70;1.95;;;;;;;18.78;54.45;102909.59;5067905;28;20105;-48
2023/05/18 08:11:25;;;;;;;11.45;1.98;;;;;;;18.34;57.11;102904.00;5067975;28;20075;-44
2023/05/18 08:13:50;;;;;;;14.52;2.28;;;;;;;18.28;57.46;102907.47;5066970;28;20041;-43
2023/05/18 08:16:16;;;;;;;8.15;2.08;;;;;;;17.88;56.95;102898.56;5066284;28;20189;-43
2023/05/18 08:18:41;;;;;;;8.95;2.42;;;;;;;17.28;60.94;102900.03;5064557;28;20063;-45
2023/05/18 08:21:08;;;;;;;11.20;2.42;;;;;;;17.85;58.40;102909.81;5068133;28;20036;-47
2023/05/18 08:23:38;;;;;;;7.28;2.20;;;;;;;17.26;59.51;102911.09;5066354;28;20033;-45
2023/05/18 08:26:04;;;;;;;6.72;2.17;;;;;;;17.32;59.22;102899.53;5064931;28;20123;-50
2023/05/18 08:28:30;;;;;;;5.60;2.00;;;;;;;16.95;59.38;102899.28;5064373;28;20119;-43
2023/05/18 08:30:55;;;;;;;8.85;2.08;;;;;;;16.79;60.56;102903.75;5065328;28;20040;-44
2023/05/18 08:33:22;;;;;;;10.55;2.42;;;;;;;16.84;61.65;102914.94;5064847;28;20051;-49
2023/05/18 08:35:47;;;;;;;9.45;2.47;;;;;;;17.03;60.83;102904.72;5065361;28;20056;-44
2023/05/18 08:38:13;;;;;;;7.32;1.95;;;;;;;16.94;61.74;102908.47;5066931;28;20086;-45
2023/05/18 08:40:45;;;;;;;9.23;2.22;;;;;;;16.70;61.36;102910.19;5064559;28;20043;-49
2023/05/18 08:43:18;;;;;;;10.93;2.08;;;;;;;16.18;63.06;102900.53;5065686;28;20025;-48
2023/05/18 08:46:05;;;;;;;9.18;2.33;;;;;;;15.98;65.32;102904.56;5064972;28;20119;-44
2023/05/18 08:48:32;;;;;;;8.60;2.28;;;;;;;15.77;65.51;102902.31;5067359;28;20055;-47
2023/05/18 08:51:00;;;;;;;6.70;1.90;;;;;;;15.95;65.42;102899.47;5067781;28;20062;-49
2023/05/18 08:53:52;;;;;;;5.20;1.88;;;;;;;15.91;66.26;102907.13;5103783;27;20412;-48
2023/05/18 08:56:21;;;;;;;9.15;2.38;;;;;;;15.67;64.68;102907.03;5085849;28;20775;-48
2023/05/18 08:58:48;;;;;;;10.73;2.20;;;;;;;15.68;66.32;102897.88;5104084;28;20024;-46
2023/05/18 09:01:13;;;;;;;10.50;2.00;;;;;;;16.02;67.01;102897.78;5103892;28;20376;-48
2023/05/18 09:03:40;;;;;;;10.55;2.30;;;;;;;15.56;65.32;102900.91;5084620;28;20027;-47
2023/05/18 09:06:06;;;;;;;7.13;2.20;;;;;;;15.15;67.91;102900.72;5103368;28;20046;-45
2023/05/18 09:08:32;;;;;;;13.68;2.50;;;;;;;15.39;69.20;102888.28;5102889;28;20409;-46
2023/05/18 09:10:59;;;;;;;6.78;2.00;;;;;;;15.93;66.33;102887.94;5085805;28;20065;-48
2023/05/18 09:13:25;;;;;;;7.80;2.05;;;;;;;15.94;66.83;102876.91;5102725;28;20063;-47
2023/05/18 09:15:51;;;;;;;8.40;2.17;;;;;;;16.09;66.35;102878.94;5105362;28;20500;-46
2023/05/18 09:18:16;;;;;;;8.45;2.42;;;;;;;16.38;65.18;102873.88;5099820;28;20116;-44
2023/05/18 09:20:42;;;;;;;15.82;2.60;;;;;;;16.60;62.99;102885.06;5102827;28;20078;-44
2023/05/18 09:23:07;;;;;;;16.13;2.85;;;;;;;16.99;64.10;102881.63;5103800;28;20059;-47
2023/05/18 09:25:35;;;;;;;8.35;2.22;;;;;;;17.58;61.01;102886.63;5103664;28;20032;-45
2023/05/18 09:28:03;;;;;;;5.70;1.90;;;;;;;17.42;59.91;102871.22;5102329;28;20114;-44
2023/05/18 09:30:29;;;;;;;10.80;2.38;;;;;;;17.85;60.40;102867.09;5105008;27;20028;-46
2023/05/18 09:32:55;;;;;;;6.93;2.05;;;;;;;18.24;60.28;102862.53;5100055;28;20066;-45
2023/05/18 09:35:23;;;;;;;5.18;2.05;;;;;;;18.81;58.36;102865.56;5099066;28;20040;-49
2023/05/18 09:37:49;;;;;;;8.90;2.10;;;;;;;19.12;60.51;102871.88;5102728;28;20028;-45
2023/05/18 09:40:15;;;;;;;9.10;2.25;;;;;;;18.81;54.54;102868.28;5085993;28;20043;-44
2023/05/18 09:42:42;;;;;;;7.85;2.28;;;;;;;20.18;52.37;102862.16;5103361;28;20035;-47
2023/05/18 09:45:18;;;;;;;10.52;2.72;;;;;;;19.88;50.81;102867.78;5102017;28;20077;-45
2023/05/18 09:47:44;;;;;;;13.18;2.58;;;;;;;20.11;50.11;102863.97;5101275;28;20036;-45
2023/05/18 09:50:10;;;;;;;7.30;2.40;;;;;;;20.45;50.44;102876.03;5102648;28;20073;-47
2023/05/18 09:52:46;;;;;;;10.13;2.63;;;;;;;19.23;50.29;102868.66;5099854;28;20036;-43
2023/05/18 09:55:11;;;;;;;7.93;2.60;;;;;;;19.68;50.81;102869.44;5097879;28;20039;-45
2023/05/18 09:57:40;;;;;;;7.85;2.00;;;;;;;19.88;50.09;102875.09;5102313;28;20388;-44
2023/05/18 10:00:10;;;;;;;9.20;2.30;;;;;;;20.26;49.88;102872.94;5100102;28;20028;-44
2023/05/18 10:02:40;;;;;;;12.05;2.70;;;;;;;20.46;48.78;102875.00;5102282;28;20442;-46
2023/05/18 10:05:18;;;;;;;6.70;2.08;;;;;;;20.45;47.42;102876.03;5087193;28;20032;-45
2023/05/18 10:07:43;;;;;;;;;;;;;;;20.44;47.58;102877.09;5089996;28;20062;-46
2023/05/18 10:10:10;;;;;;;5.82;2.35;;;;;;;20.41;47.12;102877.50;5088108;28;20034;-45
2023/05/18 10:12:37;;;;;;;8.10;2.10;;;;;;;20.14;47.91;102880.84;5089871;28;20077;-46
2023/05/18 10:15:03;;;;;;;8.55;2.40;;;;;;;19.60;49.07;102883.19;5089090;28;20099;-48
2023/05/18 10:17:31;;;;;;;9.98;2.72;;;;;;;19.68;50.12;102874.91;5089874;28;20115;-47
2023/05/18 10:19:56;;;;;;;6.97;2.10;;;;;;;19.85;49.87;102876.38;5089473;28;20067;-44
2023/05/18 10:22:24;;;;;;;8.70;2.22;;;;;;;19.90;47.69;102873.03;5089834;28;20118;-45
2023/05/18 10:24:51;;;;;;;8.05;2.40;;;;;;;19.38;48.15;102877.69;5087306;28;20553;-46
2023/05/18 10:27:21;;;;;;;8.57;2.20;;;;;;;19.57;50.44;102872.66;5090261;28;20020;-49
2023/05/18 10:29:46;;;;;;;7.32;1.88;;;;;;;20.07;49.02;102868.16;5088541;28;20416;-46
2023/05/18 10:32:13;;;;;;;7.38;2.42;;;;;;;20.14;46.08;102864.44;5088833;28;20040;-46
2023/05/18 10:34:39;;;;;;;7.90;2.35;;;;;;;19.99;47.10;102855.47;5089353;28;20032;-44
2023/05/18 10:37:05;;;;;;;7.72;2.30;;;;;;;20.06;47.56;102856.34;5086198;28;20032;-45
2023/05/18 10:39:32;;;;;;;8.90;2.25;;;;;;;20.48;48.87;102859.22;5085309;28;20047;-46
2023/05/18 10:41:59;;;;;;;11.75;2.67;;;;;;;20.61;46.46;102853.88;5088754;28;20055;-43
2023/05/18 10:44:24;;;;;;;12.77;2.43;;;;;;;19.80;47.98;102856.09;5087971;28;20029;-44
2023/05/18 10:46:50;;;;;;;12.27;2.72;;;;;;;19.19;48.45;102859.16;5088183;28;20500;-47
2023/05/18 10:49:16;;;;;;;9.02;2.78;;;;;;;18.52;51.78;102857.34;5085681;28;20035;-43
2023/05/18 10:51:43;;;;;;;11.75;2.85;;;;;;;18.65;52.06;102857.53;5089083;28;20078;-44
2023/05/18 10:54:13;;;;;;;8.47;2.50;;;;;;;18.93;51.73;102844.13;5088204;28;20039;-45
2023/05/18 10:56:43;;;;;;;12.80;2.67;;;;;;;19.44;51.24;102846.88;5084699;28;20032;-44
2023/05/18 10:59:09;;;;;;;10.13;3.13;;;;;;;19.60;49.98;102834.84;5087238;28;20037;-48
2023/05/18 11:01:36;;;;;;;12.00;2.30;;;;;;;20.09;48.27;102833.25;5069962;28;20127;-46
2023/05/18 11:04:04;;;;;;;8.85;2.42;;;;;;;20.26;45.98;102845.59;5087258;28;20043;-44
2023/05/18 11:06:32;;;;;;;8.45;2.38;;;;;;;19.69;47.10;102832.88;5085189;28;20028;-45
2023/05/18 11:08:57;;;;;;;13.27;2.75;;;;;;;19.59;49.32;102832.31;5068895;28;20050;-45
2023/05/18 11:11:25;;;;;;;12.25;2.47;;;;;;;19.33;48.83;102836.44;5086072;28;20055;-46
2023/05/18 11:13:50;;;;;;;7.82;2.63;;;;;;;18.92;49.51;102836.97;5084204;28;20157;-45
2023/05/18 11:16:17;;;;;;;10.43;2.70;;;;;;;18.51;52.45;102836.53;5084604;28;20537;-45
2023/05/18 11:18:45;;;;;;;9.45;2.65;;;;;;;18.55;50.27;102833.25;5087690;28;20035;-44